createdAt,value
2023-04-21T00:02:22.615Z,29.20
2023-04-21T00:07:24.786Z,28.08
2023-04-21T00:12:26.320Z,27.88
2023-04-21T00:17:28.032Z,29.08
2023-04-21T00:22:29.521Z,27.13
2023-04-21T00:27:30.988Z,32.15
2023-04-21T00:32:32.497Z,30.30
2023-04-21T00:37:34.453Z,32.75
2023-04-21T00:42:36.104Z,29.83
2023-04-21T00:47:37.728Z,33.63
2023-04-21T00:52:40.624Z,32.80
2023-04-21T00:57:42.592Z,34.35
2023-04-21T01:02:45.719Z,34.90
2023-04-21T01:07:47.502Z,30.45
2023-04-21T01:12:49.044Z,31.90
2023-04-21T01:17:50.533Z,35.00
2023-04-21T01:22:52.149Z,31.02
2023-04-21T01:27:53.776Z,31.33
2023-04-21T01:32:55.280Z,31.35
2023-04-21T01:37:56.836Z,30.73
2023-04-21T01:42:59.332Z,34.90
2023-04-21T01:48:00.878Z,32.45
2023-04-21T01:53:02.487Z,30.42
2023-04-21T01:58:04.067Z,31.33
2023-04-21T02:03:05.792Z,27.67
2023-04-21T02:08:07.338Z,29.83
2023-04-21T02:13:08.786Z,28.40
2023-04-21T02:18:10.663Z,25.85
2023-04-21T02:23:12.279Z,28.10
2023-04-21T02:28:13.851Z,32.10
2023-04-21T02:33:15.395Z,21.17
2023-04-21T02:38:16.932Z,24.20
2023-04-21T02:43:18.518Z,23.25
2023-04-21T02:48:23.047Z,25.17
2023-04-21T02:53:24.695Z,26.52
2023-04-21T02:58:26.202Z,23.88
2023-04-21T03:03:28.053Z,25.23
2023-04-21T03:08:31.098Z,21.80
2023-04-21T03:13:32.595Z,25.95
2023-04-21T03:18:37.152Z,22.83
2023-04-21T03:23:39.817Z,20.20
2023-04-21T03:28:41.303Z,24.58
2023-04-21T03:33:42.873Z,23.42
2023-04-21T03:38:44.380Z,21.88
2023-04-21T03:43:45.878Z,26.40
2023-04-21T03:48:48.045Z,19.73
2023-04-21T03:53:49.587Z,22.85
2023-04-21T03:58:51.078Z,24.02
2023-04-21T04:03:52.916Z,19.83
2023-04-21T04:08:54.607Z,22.15
2023-04-21T04:13:56.164Z,23.58
2023-04-21T04:18:57.715Z,23.85
2023-04-21T04:23:59.608Z,21.60
2023-04-21T04:29:02.373Z,21.90
2023-04-21T04:34:03.889Z,27.77
2023-04-21T04:39:06.378Z,20.48
2023-04-21T04:44:09.493Z,21.13
2023-04-21T04:49:11.036Z,21.98
2023-04-21T04:54:12.555Z,23.15
2023-04-21T04:59:14.095Z,26.05
2023-04-21T05:04:17.026Z,23.13
2023-04-21T05:09:18.964Z,20.92
2023-04-21T05:14:20.946Z,20.17
2023-04-21T05:19:22.669Z,23.25
2023-04-21T05:24:24.271Z,19.35
2023-04-21T05:29:25.764Z,20.85
2023-04-21T05:34:27.255Z,19.02
2023-04-21T05:39:28.762Z,18.58
2023-04-21T05:44:30.327Z,17.85
2023-04-21T05:49:32.620Z,23.67
2023-04-21T05:54:34.165Z,24.65
2023-04-21T05:59:35.892Z,23.23
2023-04-21T06:04:37.553Z,22.17
2023-04-21T06:09:41.876Z,20.30
2023-04-21T06:14:43.341Z,18.67
2023-04-21T06:19:44.888Z,20.85
2023-04-21T06:24:46.828Z,18.45
2023-04-21T06:29:48.323Z,19.02
2023-04-21T06:34:49.787Z,18.52
2023-04-21T06:39:51.360Z,20.33
2023-04-21T06:44:52.957Z,20.73
2023-04-21T06:49:54.449Z,19.38
2023-04-21T06:54:56.494Z,20.75
2023-04-21T06:59:58.121Z,21.55
2023-04-21T07:04:59.891Z,25.02
2023-04-21T07:10:01.432Z,18.83
2023-04-21T07:15:03.076Z,21.08
2023-04-21T07:20:04.918Z,22.30
2023-04-21T07:25:06.912Z,21.90
2023-04-21T07:30:08.771Z,17.52
2023-04-21T07:35:10.342Z,21.33
2023-04-21T07:40:12.106Z,20.83
2023-04-21T07:45:13.609Z,23.58
2023-04-21T07:50:15.139Z,20.85
2023-04-21T07:55:16.682Z,18.17
2023-04-21T08:00:18.519Z,17.75
2023-04-21T08:05:20.150Z,23.25
2023-04-21T08:10:21.792Z,22.10
2023-04-21T08:15:23.684Z,22.27
2023-04-21T08:20:25.178Z,26.58
2023-04-21T08:25:26.768Z,24.08
2023-04-21T08:30:28.986Z,27.73
2023-04-21T08:35:30.612Z,25.08
2023-04-21T08:40:43.119Z,27.55
2023-04-21T08:45:44.943Z,30.65
2023-04-21T08:50:48.871Z,26.45
2023-04-21T08:56:09.839Z,24.08
2023-04-21T09:01:12.348Z,27.25
2023-04-21T09:06:14.072Z,29.08
2023-04-21T09:11:16.695Z,28.50
2023-04-21T09:16:21.337Z,24.92
2023-04-21T09:26:30.996Z,20.77
2023-04-21T09:31:35.617Z,28.40
2023-04-21T09:36:37.627Z,27.65
2023-04-21T09:41:39.130Z,25.10
2023-04-21T09:46:44.713Z,23.25
2023-04-21T09:56:55.895Z,25.77
2023-04-21T10:01:59.940Z,24.92
2023-04-21T10:07:01.874Z,26.77
2023-04-21T10:12:05.033Z,25.20
2023-04-21T10:17:12.777Z,25.02
2023-04-21T10:22:14.286Z,25.67
2023-04-21T10:27:32.339Z,27.40
2023-04-21T10:32:45.281Z,25.08
2023-04-21T10:37:52.091Z,26.00
2023-04-21T10:42:53.812Z,26.13
2023-04-21T10:47:55.415Z,28.85
2023-04-21T10:53:13.023Z,23.13
2023-04-21T10:58:15.730Z,24.48
2023-04-21T11:03:17.427Z,26.80
2023-04-21T11:08:19.054Z,34.60
2023-04-21T11:13:22.286Z,26.10
2023-04-21T11:18:53.265Z,33.30
2023-04-21T11:23:56.341Z,26.80
2023-04-21T11:29:00.903Z,31.75
2023-04-21T11:34:05.319Z,25.80
2023-04-21T11:39:11.506Z,28.65
2023-04-21T11:44:15.110Z,26.70
2023-04-21T11:49:19.099Z,27.40
2023-04-21T11:54:22.093Z,25.45
2023-04-21T11:59:26.610Z,24.95
2023-04-21T12:04:28.259Z,25.10
2023-04-21T12:09:30.311Z,28.17
2023-04-21T12:14:33.893Z,28.35
2023-04-21T12:19:39.503Z,25.83
2023-04-21T12:24:41.591Z,30.73
2023-04-21T12:29:43.183Z,25.20
2023-04-21T12:34:44.774Z,28.35
2023-04-21T12:39:46.348Z,25.70
2023-04-21T12:44:47.951Z,29.65
2023-04-21T12:49:49.491Z,29.50
2023-04-21T12:54:50.974Z,26.45
2023-04-21T12:59:52.536Z,37.95
2023-04-21T13:04:54.050Z,36.08
2023-04-21T13:09:55.628Z,33.63
2023-04-21T13:14:57.199Z,29.58
2023-04-21T13:19:58.737Z,29.10
2023-04-21T13:25:00.691Z,29.33
2023-04-21T13:30:02.268Z,26.85
2023-04-21T13:35:09.364Z,29.25
2023-04-21T13:40:11.823Z,29.08
2023-04-21T13:45:13.434Z,29.67
2023-04-21T13:50:14.969Z,27.63
2023-04-21T13:55:16.486Z,26.83
2023-04-21T14:00:18.575Z,24.80
2023-04-21T14:05:20.424Z,27.77
2023-04-21T14:10:22.229Z,23.55
2023-04-21T14:15:23.849Z,27.55
2023-04-21T14:20:26.302Z,28.63
2023-04-21T14:25:28.000Z,25.52
2023-04-21T14:30:29.618Z,24.70
2023-04-21T14:35:31.111Z,25.30
2023-04-21T14:40:33.052Z,23.25
2023-04-21T14:45:34.620Z,24.05
2023-04-21T14:50:36.180Z,25.55
2023-04-21T14:55:37.724Z,26.20
2023-04-21T15:00:39.586Z,28.20
2023-04-21T15:05:41.292Z,28.33
2023-04-21T15:10:42.974Z,30.17
2023-04-21T15:15:44.588Z,29.38
2023-04-21T15:20:46.709Z,28.90
2023-04-21T15:25:48.454Z,36.47
2023-04-21T15:30:50.059Z,31.52
2023-04-21T15:35:51.757Z,33.70
2023-04-21T15:51:02.693Z,4.95
2023-04-21T15:56:04.874Z,8.48
2023-04-21T16:01:06.964Z,13.32
2023-04-21T16:06:08.740Z,21.40
2023-04-21T16:11:10.652Z,31.00
2023-04-21T16:16:12.364Z,44.50
2023-04-21T16:21:13.997Z,48.67
2023-04-21T16:26:15.647Z,46.00
2023-04-21T16:31:17.315Z,50.58
2023-04-21T16:36:19.102Z,46.60
2023-04-21T16:41:21.322Z,46.70
2023-04-21T16:46:23.170Z,35.47
2023-04-21T16:51:26.122Z,34.08
2023-04-21T16:56:27.617Z,32.92
2023-04-21T17:01:29.262Z,36.28
2023-04-21T17:06:31.944Z,42.80
2023-04-21T17:11:33.500Z,38.78
2023-04-21T17:16:35.031Z,37.80
2023-04-21T17:21:38.565Z,41.40
2023-04-21T17:26:40.257Z,41.60
2023-04-21T17:31:41.766Z,43.10
2023-04-21T17:36:44.631Z,38.22
2023-04-21T17:41:47.230Z,27.67
2023-04-21T17:46:49.181Z,27.67
2023-04-21T17:51:51.102Z,23.60
2023-04-21T17:56:52.634Z,13.25
2023-04-21T18:01:54.967Z,12.75
2023-04-21T18:06:56.819Z,10.27
2023-04-21T18:11:58.376Z,11.65
2023-04-21T18:17:01.726Z,14.85
2023-04-21T18:22:03.307Z,12.82
2023-04-21T18:27:04.910Z,13.35
2023-04-21T18:32:06.617Z,14.57
2023-04-21T18:37:08.174Z,10.68
2023-04-21T18:42:09.751Z,21.30
2023-04-21T18:47:12.062Z,12.38
2023-04-21T18:52:14.221Z,11.10
2023-04-21T18:57:15.766Z,19.83
2023-04-21T19:02:17.672Z,16.10
2023-04-21T19:07:19.316Z,13.98
2023-04-21T19:12:21.374Z,17.45
2023-04-21T19:17:23.236Z,23.23
2023-04-21T19:22:24.847Z,26.25
2023-04-21T19:27:26.436Z,25.33
2023-04-21T19:32:28.060Z,27.20
2023-04-21T19:37:32.315Z,31.75
2023-04-21T19:42:35.242Z,24.45
2023-04-21T19:47:36.801Z,14.95
2023-04-21T19:52:38.359Z,7.10
2023-04-21T19:57:39.842Z,5.75
2023-04-21T20:02:42.342Z,7.40
2023-04-21T20:07:44.237Z,4.50
2023-04-21T20:12:45.837Z,6.38
2023-04-21T20:17:48.927Z,5.03
2023-04-21T20:22:50.537Z,7.15
2023-04-21T20:27:52.145Z,10.63
2023-04-21T20:32:53.737Z,8.27
2023-04-21T20:37:55.321Z,8.15
2023-04-21T20:42:56.878Z,9.07
2023-04-21T20:47:58.398Z,13.90
2023-04-21T20:53:00.240Z,10.88
2023-04-21T20:58:02.324Z,10.65
2023-04-21T21:03:05.686Z,8.70
2023-04-21T21:08:07.246Z,11.60
2023-04-21T21:13:08.870Z,10.57
2023-04-21T21:18:10.480Z,15.07
2023-04-21T21:23:12.065Z,10.43
2023-04-21T21:28:13.533Z,11.15
2023-04-21T21:33:15.070Z,8.35
2023-04-21T21:38:16.619Z,6.30
2023-04-21T21:43:18.259Z,7.18
2023-04-21T21:48:19.923Z,10.45
2023-04-21T21:53:21.538Z,10.25
2023-04-21T21:58:23.178Z,13.88
2023-04-21T22:03:24.828Z,21.75
2023-04-21T22:08:26.804Z,14.40
2023-04-21T22:13:28.403Z,15.07
2023-04-21T22:18:30.135Z,7.70
2023-04-21T22:23:31.955Z,10.93
2023-04-21T22:28:33.399Z,8.13
2023-04-21T22:33:34.897Z,9.50
2023-04-21T22:38:36.343Z,11.15
2023-04-21T22:43:37.859Z,10.40
2023-04-21T22:48:39.708Z,8.18
2023-04-21T22:53:41.232Z,11.38
2023-04-21T22:58:43.244Z,12.52
2023-04-21T23:03:44.845Z,13.20
2023-04-21T23:08:46.524Z,14.60
2023-04-21T23:13:48.412Z,14.05
2023-04-21T23:18:49.920Z,11.40
2023-04-21T23:23:51.572Z,8.75
2023-04-21T23:28:53.117Z,12.98
2023-04-21T23:33:54.626Z,12.55
2023-04-21T23:38:56.194Z,8.60
2023-04-21T23:43:57.734Z,13.13
2023-04-21T23:48:59.295Z,8.20
2023-04-21T23:54:01.694Z,10.25
2023-04-21T23:59:03.281Z,11.30
